Latest Weather Observations for Cape Leeuwin

IDW60801

Issued at 9:33 pm WST Saturday 25 June 2016 (issued every 30 minutes, with the page automatically refreshed every 10 minutes)

About weather observations | Map of weather stations | Latest weather observations for WA | Other Formats
Station Details ID: 009518 Name: CAPE LEEUWIN Lat: -34.37 Lon: 115.14 Height: 13.0 m
Data from the previous 72 hours. | See also: Recent months at Cape Leeuwin
Date/Time
WST
Temp
°C
App
Temp
°C
Dew
Point
°C
Rel
Hum
%
Delta-T
°C
Wind Press
QNH
hPa
Press
MSL
hPa
Rain since
9am
mm
Dir  Spd
km/h
Gust
km/h
Spd
kts
Gust
kts
25/09:30pm 11.9 8.7 8.4 79 1.7 NNE 15 22 8 12 1023.0 1023.0 1.2
25/09:00pm 13.6 12.2 9.7 77 2.0 SE 7 11 4 6 1023.1 1023.1 1.2
25/08:30pm 13.6 11.0 9.5 76 2.1 SSW 13 19 7 10 1023.1 1023.1 1.2
25/08:00pm 13.1 11.1 8.5 73 2.3 SW 9 11 5 6 1022.9 1022.9 1.2
25/07:30pm 13.3 10.2 8.7 73 2.3 SSW 15 20 8 11 1022.8 1022.8 1.2
25/07:00pm 13.4 9.7 7.9 69 2.7 SSW 17 24 9 13 1022.7 1022.7 1.2
25/06:30pm 13.3 8.0 10.0 80 1.7 SW 28 37 15 20 1022.5 1022.5 1.2
25/06:00pm 14.3 10.0 7.8 65 3.2 WSW 20 26 11 14 1022.0 1022.0 1.2
25/05:30pm 13.0 10.9 9.7 80 1.7 SSW 11 19 6 10 1021.8 1021.8 1.2
25/05:00pm 15.1 10.7 7.6 61 3.7 SW 20 33 11 18 1021.4 1021.4 0.2
25/04:30pm 14.6 10.5 6.3 57 4.0 SW 17 20 9 11 1021.2 1021.2 0.2
25/04:00pm 15.3 10.9 7.2 58 4.0 SW 20 28 11 15 1021.3 1021.3 0.2
25/03:30pm 15.1 12.5 7.9 62 3.6 W 11 17 6 9 1020.7 1020.7 0.2
25/03:00pm 15.1 11.3 7.6 61 3.7 W 17 28 9 15 1020.4 1020.4 0.2
25/02:30pm 16.5 12.3 7.5 55 4.5 SW 19 26 10 14 1020.4 1020.4 0.2
25/02:00pm 16.0 11.6 7.3 56 4.3 SSW 20 28 11 15 1020.4 1020.4 0.2
25/01:30pm 14.6 8.5 6.5 58 3.9 SW 28 35 15 19 1020.4 1020.4 0.2
25/01:00pm 14.5 11.1 7.8 64 3.3 SSW 15 30 8 16 1020.4 1020.4 0.2
25/12:30pm 16.2 11.6 6.6 53 4.7 SSW 20 26 11 14 1020.4 1020.4 0.0
25/12:00pm 15.4 9.5 7.3 58 4.0 WSW 28 37 15 20 1020.6 1020.6 0.0
25/11:30am 16.1 10.6 5.7 50 5.0 SW 24 32 13 17 1020.5 1020.5 0.0
25/11:00am 14.9 9.1 4.3 49 4.9 SSW 24 32 13 17 1020.6 1020.6 0.0
25/10:30am 13.2 7.1 6.7 64 3.1 SSW 28 46 15 25 1020.8 1020.8 0.0
25/10:28am 13.5 7.4 6.6 63 3.3 SW 28 46 15 25 1020.8 1020.8 0.0
25/10:00am 15.3 10.5 5.4 51 4.7 SSW 20 28 11 15 1020.3 1020.3 0.0
25/09:30am 14.4 7.6 3.3 47 5.0 SSW 28 35 15 19 1020.0 1020.0 0.0
25/09:00am 14.1 6.6 4.6 52 4.4 SSW 33 44 18 24 1019.6 1019.6 7.8
25/08:30am 14.0 7.0 6.0 58 3.8 SSW 32 43 17 23 1019.1 1019.1 7.8
25/08:00am 14.0 6.1 6.3 60 3.7 SSW 37 48 20 26 1018.5 1018.5 7.8
25/07:30am 13.8 5.9 7.7 66 3.0 SW 39 52 21 28 1017.9 1017.9 7.8
25/07:00am 13.4 6.4 8.4 72 2.5 SSW 35 46 19 25 1017.3 1017.3 7.8
25/06:52am 13.2 6.5 9.5 78 1.9 SSW 35 54 19 29 1017.2 1017.2 7.8
25/06:30am 13.4 5.4 9.0 75 2.2 SSW 41 50 22 27 1016.8 1016.8 7.8
25/06:01am 12.7 5.5 10.4 86 1.2 SW 39 57 21 31 1016.3 1016.3 7.8
25/06:00am 12.6 4.9 10.3 86 1.2 SW 41 57 22 31 1016.3 1016.3 7.8
25/05:52am 13.0 6.2 10.5 85 1.3 SW 37 57 20 31 1016.2 1016.2 7.8
25/05:51am 13.1 6.6 10.4 84 1.4 SW 35 52 19 28 1016.1 1016.1 7.8
25/05:30am 12.8 7.0 10.7 87 1.1 SW 32 41 17 22 1016.0 1016.0 7.8
25/05:00am 11.9 3.5 10.9 94 0.5 SSW 46 63 25 34 1015.8 1015.8 7.6
25/04:44am 13.7 5.7 10.4 80 1.7 SW 43 74 23 40 1015.1 1015.1 5.8
25/04:30am 14.5 7.9 9.9 74 2.4 SW 35 44 19 24 1014.7 1014.7 5.8
25/04:00am 14.6 8.1 10.4 76 2.2 SW 35 44 19 24 1014.5 1014.5 5.8
25/03:30am 14.5 7.5 11.1 80 1.8 WSW 39 46 21 25 1014.4 1014.4 5.8
25/03:00am 14.5 7.4 12.1 85 1.3 WSW 41 48 22 26 1014.2 1014.2 5.8
25/02:30am 14.8 6.9 12.6 87 1.2 WSW 46 59 25 32 1013.7 1013.7 4.4
25/02:21am 15.4 8.4 12.5 83 1.6 W 41 59 22 32 1013.6 1013.6 4.0
25/02:00am 14.2 7.6 12.5 89 0.9 W 39 48 21 26 1014.0 1014.0 3.2
25/01:47am 14.8 7.0 11.2 79 1.9 W 43 54 23 29 1013.6 1013.6 2.6
25/01:30am 14.8 4.4 11.2 79 1.9 W 57 69 31 37 1013.7 1013.7 2.4
25/01:13am 15.3 6.1 9.5 68 3.0 WNW 48 76 26 41 1013.2 1013.2 2.4
25/01:11am 15.8 7.6 10.5 71 2.8 WNW 44 63 24 34 1013.4 1013.4 2.4
25/01:00am 15.7 7.7 10.6 71 2.7 WNW 43 50 23 27 1013.4 1013.4 2.4
25/12:30am 16.0 6.9 11.4 74 2.5 WNW 50 57 27 31 1013.6 1013.6 1.8
25/12:00am 16.3 7.4 11.9 75 2.4 WNW 50 57 27 31 1013.7 1013.7 1.8
 
Date/Time
WST
Temp
°C
App
Temp
°C
Dew
Point
°C
Rel
Hum
%
Delta-T
°C
Wind Press
QNH
hPa
Press
MSL
hPa
Rain since
9am
mm
Dir  Spd
km/h
Gust
km/h
Spd
kts
Gust
kts
24/11:30pm 15.7 7.1 11.8 77 2.1 WNW 48 61 26 33 1013.8 1013.8 1.8
24/11:00pm 14.3 5.1 13.4 94 0.5 W 54 67 29 36 1014.2 1014.2 1.4
24/10:40pm 15.1 7.0 13.1 88 1.1 WNW 48 69 26 37 1014.1 1014.1 0.2
24/10:30pm 16.7 8.8 11.5 71 2.8 NW 44 57 24 31 1013.9 1013.9 0.2
24/10:18pm 16.7 9.3 11.1 69 3.0 WNW 41 59 22 32 1013.8 1013.8 0.2
24/10:00pm 16.7 8.6 10.1 65 3.5 WNW 43 54 23 29 1014.0 1014.0 0.2
24/09:30pm 16.5 7.7 9.6 63 3.6 WNW 46 56 25 30 1014.2 1014.2 0.2
24/09:00pm 16.6 6.9 9.0 61 3.9 WNW 50 57 27 31 1014.3 1014.3 0.2
24/08:30pm 16.6 8.2 11.0 69 3.0 WNW 46 56 25 30 1014.4 1014.4 0.2
24/08:00pm 16.5 9.6 11.7 73 2.6 NW 39 46 21 25 1014.6 1014.6 0.2
24/07:30pm 16.0 9.8 12.5 80 1.9 NW 37 44 20 24 1014.7 1014.7 0.2
24/07:00pm 16.1 9.6 11.7 75 2.4 NW 37 43 20 23 1015.0 1015.0 0.2
24/06:30pm 16.1 9.7 11.9 76 2.3 NW 37 44 20 24 1014.8 1014.8 0.2
24/06:00pm 15.6 9.9 11.1 74 2.4 NNW 32 41 17 22 1014.6 1014.6 0.2
24/05:30pm 16.3 10.0 10.9 70 2.9 NW 35 41 19 22 1014.4 1014.4 0.2
24/05:00pm 16.2 9.7 10.5 69 3.0 NW 35 43 19 23 1014.4 1014.4 0.2
24/04:30pm 16.1 9.1 10.0 67 3.2 NW 37 43 20 23 1014.5 1014.5 0.2
24/04:00pm 16.0 10.3 9.7 66 3.3 NNW 30 41 16 22 1014.7 1014.7 0.2
24/03:30pm 15.8 9.7 8.3 61 3.8 NNW 30 37 16 20 1014.9 1014.9 0.2
24/03:00pm 16.4 10.2 9.2 62 3.7 NNW 32 39 17 21 1015.1 1015.1 0.2
24/02:52pm 16.3 9.8 9.1 62 3.7 NNW 33 43 18 23 1015.1 1015.1 0.2
24/02:30pm 16.2 8.7 7.8 57 4.2 NW 37 46 20 25 1015.1 1015.1 0.2
24/02:00pm 16.4 7.6 7.1 54 4.6 WNW 43 50 23 27 1015.1 1015.1 0.2
24/01:30pm 16.5 8.4 8.5 59 4.1 NW 41 46 22 25 1015.5 1015.5 0.2
24/01:00pm 16.2 8.1 8.5 60 3.9 WNW 41 50 22 27 1016.1 1016.1 0.2
24/12:30pm 16.0 7.9 8.8 62 3.7 WNW 41 50 22 27 1016.4 1016.4 0.2
24/12:00pm 16.0 7.9 8.8 62 3.7 WNW 41 48 22 26 1016.8 1016.8 0.2
24/11:30am 15.9 8.2 10.2 69 3.0 WNW 41 50 22 27 1017.3 1017.3 0.2
24/11:00am 15.7 9.7 10.0 69 3.0 NW 32 39 17 21 1017.8 1017.8 0.2
24/10:30am 14.6 11.8 10.0 74 2.4 N 15 28 8 15 1018.2 1018.2 0.2
24/10:00am 14.9 10.6 9.5 70 2.8 N 22 33 12 18 1018.1 1018.1 0.2
24/09:30am 13.5 8.8 9.4 76 2.1 NNE 24 33 13 18 1018.2 1018.2 0.0
24/09:00am 12.8 7.7 9.2 79 1.8 NNE 26 35 14 19 1018.2 1018.2 0.0
24/08:30am 12.4 7.5 8.6 77 1.9 N 24 35 13 19 1018.4 1018.4 0.0
24/08:00am 11.9 6.4 7.6 75 2.1 NNE 26 35 14 19 1018.3 1018.3 0.0
24/07:30am 11.8 6.1 6.7 71 2.4 NNE 26 37 14 20 1018.1 1018.1 0.0
24/07:00am 12.1 5.8 5.9 66 2.9 NNE 28 37 15 20 1018.1 1018.1 0.0
24/06:30am 11.8 5.7 5.0 63 3.1 NNE 26 33 14 18 1018.0 1018.0 0.0
24/06:00am 12.0 6.2 4.5 60 3.4 NNE 24 35 13 19 1018.0 1018.0 0.0
24/05:30am 11.9 6.8 4.1 59 3.5 NNE 20 28 11 15 1018.1 1018.1 0.0
24/05:00am 11.9 6.9 3.8 57 3.6 NNE 19 24 10 13 1018.4 1018.4 0.0
24/04:30am 11.8 6.7 4.0 59 3.5 NNE 20 26 11 14 1018.5 1018.5 0.0
24/04:00am 11.9 6.9 3.8 57 3.6 NNE 19 26 10 14 1018.8 1018.8 0.0
24/03:30am 11.9 7.1 4.4 60 3.4 NNE 19 28 10 15 1019.0 1019.0 0.0
24/03:00am 11.9 7.1 4.6 61 3.3 NNE 19 24 10 13 1019.2 1019.2 0.0
24/02:30am 12.0 7.6 4.5 60 3.4 NNE 17 22 9 12 1019.5 1019.5 0.0
24/02:00am 12.0 7.0 4.5 60 3.4 NNE 20 24 11 13 1019.7 1019.7 0.0
24/01:30am 12.1 7.2 4.1 58 3.6 NNE 19 24 10 13 1020.0 1020.0 0.0
24/01:00am 12.1 7.2 4.3 59 3.5 NNE 19 22 10 12 1020.3 1020.3 0.0
24/12:30am 12.2 7.8 4.5 59 3.5 NNE 17 20 9 11 1020.6 1020.6 0.0
24/12:00am 12.2 7.8 4.7 60 3.4 NNE 17 20 9 11 1020.8 1020.8 0.0
 
Date/Time
WST
Temp
°C
App
Temp
°C
Dew
Point
°C
Rel
Hum
%
Delta-T
°C
Wind Press
QNH
hPa
Press
MSL
hPa
Rain since
9am
mm
Dir  Spd
km/h
Gust
km/h
Spd
kts
Gust
kts
23/11:30pm 12.3 8.2 4.6 59 3.5 NNE 15 19 8 10 1021.0 1021.0 0.0
23/11:00pm 12.4 9.1 4.5 58 3.6 N 11 17 6 9 1021.2 1021.2 0.0
23/10:30pm 12.3 8.3 5.1 61 3.3 NNE 15 17 8 9 1021.3 1021.3 0.0
23/10:00pm 12.3 8.3 5.1 61 3.3 NNE 15 17 8 9 1021.4 1021.4 0.0
23/09:30pm 12.5 9.2 4.8 59 3.5 N 11 13 6 7 1021.6 1021.6 0.0
23/09:00pm 12.5 9.3 5.1 60 3.4 NNE 11 15 6 8 1021.5 1021.5 0.0
23/08:30pm 12.5 8.9 5.1 60 3.4 N 13 15 7 8 1021.6 1021.6 0.0
23/08:00pm 13.1 10.5 4.0 54 4.1 NNW 7 15 4 8 1021.5 1021.5 0.0
23/07:30pm 13.9 10.7 2.8 47 4.9 W 9 17 5 9 1021.4 1021.4 0.0
23/07:00pm 12.9 10.8 4.0 54 4.0 NE 4 7 2 4 1021.2 1021.2 0.0
23/06:30pm 13.7 10.9 2.9 48 4.8 W 7 13 4 7 1021.0 1021.0 0.0
23/06:00pm 13.9 10.0 3.4 49 4.7 W 13 17 7 9 1020.8 1020.8 0.0
23/05:30pm 13.8 11.0 3.3 49 4.7 WSW 7 13 4 7 1020.7 1020.7 0.0
23/05:00pm 13.9 10.4 3.4 49 4.7 WSW 11 19 6 10 1020.8 1020.8 0.0
23/04:30pm 13.9 10.1 3.7 50 4.6 SSW 13 17 7 9 1020.6 1020.6 0.0
23/04:00pm 14.0 11.1 4.4 52 4.4 SW 9 13 5 7 1020.5 1020.5 0.0
23/03:30pm 13.9 11.4 4.8 54 4.2 SSW 7 13 4 7 1020.5 1020.5 0.0
23/03:00pm 14.1 11.0 5.4 56 4.1 S 11 15 6 8 1020.5 1020.5 0.0
23/02:30pm 14.5 11.7 5.1 53 4.4 SSE 9 17 5 9 1020.4 1020.4 0.0
23/02:00pm 14.6 11.1 5.5 54 4.3 SSE 13 20 7 11 1020.5 1020.5 0.0
23/01:30pm 15.4 11.4 5.0 50 4.9 S 15 24 8 13 1020.6 1020.6 0.0
23/01:00pm 14.9 10.1 4.8 51 4.7 S 19 24 10 13 1020.8 1020.8 0.0
23/12:30pm 14.4 9.8 3.6 48 4.9 SSE 17 24 9 13 1021.0 1021.0 0.0
23/12:00pm 14.5 10.1 4.8 52 4.5 S 17 24 9 13 1021.3 1021.3 0.0
23/11:30am 14.4 9.5 4.1 50 4.7 SSW 19 26 10 14 1021.6 1021.6 0.0
23/11:00am 14.5 9.6 5.1 53 4.4 SSW 20 28 11 15 1021.6 1021.6 0.0
23/10:30am 14.4 9.2 5.7 56 4.1 S 22 30 12 16 1021.8 1021.8 0.0
23/10:00am 14.4 9.0 6.3 58 3.9 SSW 24 32 13 17 1021.7 1021.7 0.0
23/09:30am 13.5 7.5 6.9 64 3.2 SSW 28 35 15 19 1021.4 1021.4 0.0
23/09:00am 12.8 8.1 7.9 72 2.4 SW 22 32 12 17 1021.1 1021.1 1.8
23/08:30am 13.2 6.6 8.6 73 2.3 SW 33 43 18 23 1020.6 1020.6 1.8
23/08:00am 12.6 6.9 6.5 66 2.9 SSW 26 35 14 19 1020.3 1020.3 1.8
23/07:30am 12.0 7.0 7.9 76 2.0 WSW 24 39 13 21 1020.0 1020.0 1.8
23/07:00am 11.3 4.4 8.7 84 1.3 SW 35 50 19 27 1019.9 1019.9 1.8
23/06:31am 13.0 4.9 8.6 74 2.2 SW 41 59 22 32 1019.3 1019.3 1.8
23/06:30am 13.1 5.3 8.3 72 2.4 SW 39 54 21 29 1019.3 1019.3 1.8
23/06:26am 13.5 6.7 7.8 68 2.8 SW 33 54 18 29 1019.1 1019.1 1.8
23/06:00am 13.3 6.0 5.6 59 3.6 WSW 33 44 18 24 1019.1 1019.1 1.8
23/05:46am 13.8 4.9 7.5 66 3.1 SW 44 52 24 28 1018.9 1018.9 1.8
23/05:30am 13.7 7.1 5.9 59 3.7 SW 30 37 16 20 1018.8 1018.8 1.8
23/05:00am 13.5 6.2 4.3 53 4.2 SW 32 43 17 23 1018.8 1018.8 1.8
23/04:30am 14.1 6.2 6.4 60 3.7 SW 37 46 20 25 1018.7 1018.7 1.8
23/04:00am 12.9 5.8 6.4 64 3.1 SW 33 48 18 26 1018.9 1018.9 1.8
23/03:30am 14.0 5.1 3.0 47 4.9 SW 39 48 21 26 1018.6 1018.6 1.8
23/03:00am 13.9 6.6 5.4 56 4.0 SW 33 48 18 26 1018.5 1018.5 1.8
23/02:30am 14.1 6.5 5.9 57 3.9 WSW 35 43 19 23 1018.4 1018.4 1.8
23/02:00am 13.8 5.1 6.0 59 3.7 SW 41 48 22 26 1018.2 1018.2 1.8
23/01:30am 14.0 6.2 8.2 68 2.9 SW 39 46 21 25 1018.1 1018.1 1.8
23/01:00am 14.5 6.2 6.1 57 4.0 SW 39 48 21 26 1018.1 1018.1 1.8
23/12:30am 14.5 4.9 3.4 47 5.0 WSW 43 54 23 29 1018.1 1018.1 1.8
23/12:00am 14.6 6.3 6.0 56 4.1 SW 39 52 21 28 1018.2 1018.2 1.8
 
Date/Time
WST
Temp
°C
App
Temp
°C
Dew
Point
°C
Rel
Hum
%
Delta-T
°C
Wind Press
QNH
hPa
Press
MSL
hPa
Rain since
9am
mm
Dir  Spd
km/h
Gust
km/h
Spd
kts
Gust
kts
22/11:30pm 14.6 6.8 6.5 58 3.9 SW 37 48 20 26 1018.2 1018.2 1.8
22/11:00pm 14.7 6.2 5.1 52 4.5 SW 39 50 21 27 1018.0 1018.0 1.8
22/10:30pm 14.8 6.8 7.5 61 3.6 SW 39 46 21 25 1017.8 1017.8 1.8
22/10:00pm 14.5 6.3 8.3 66 3.1 SW 41 48 22 26 1017.7 1017.7 1.8

Other Formats:

Comma delimited format used in spreadsheet applications
http://www.bom.gov.au/fwo/IDW60801/IDW60801.94601.axf

JavaScript Object Notation format (JSON) in row-major order
http://www.bom.gov.au/fwo/IDW60801/IDW60801.94601.json